Randolph AFB, Texas
Current Conditions -  °F | °C
As of 9:58 AM on Tuesday 21 Oct 2014 (Local Time) from KRND Reporting Station
Clear Clear  
Wind Chill: 71°   Ceiling: Unl
Heat Index: 71°   Visibility: NA
Dew Point: 59°   Wind: 8mph
Humidity: 67%   Direction: 70°ENE
Pressure: 30.09"   Gusts: NA
Location:  29.5519°N, 98.3081°W
Report Text: KRND 211458Z AUTO 07007KT M CLR 21/15 A3009 RMK AO2 SLP184 T02140150 52017 RVRNO PNO $
Loading
Personal Weather Stations






























Interactive Weather Map
Tropical Storm Tracking
New forecast layout! Learn more

10-Day Weather Forecast

Advertisements
Track Severe Weather on mobile